Time;durP1;ratioP1;P1;durP2;ratioP2;P2;SDS_P1;SDS_P2;PMS_P1;PMS_P2;Temp;Humidity;BMP_temperature;BMP_pressure;BME280_temperature;BME280_humidity;BME280_pressure;Samples;Min_cycle;Max_cycle;Signal;HPM_P1;HPM_P2
2022/04/13 00:02:21;;;;;;;9.27;3.90;;;;;;;18.72;43.57;101004.50;6339250;22;20090;-64
2022/04/13 00:04:51;;;;;;;11.32;4.35;;;;;;;18.65;43.75;100998.00;6338388;22;20010;-66
2022/04/13 00:07:18;;;;;;;5.43;3.25;;;;;;;18.56;43.53;101010.59;6311946;22;20018;-66
2022/04/13 00:09:45;;;;;;;6.40;3.50;;;;;;;18.46;43.57;101004.38;6339110;22;20017;-65
2022/04/13 00:12:11;;;;;;;10.07;3.90;;;;;;;18.37;44.23;101010.75;6339309;22;20018;-64
2022/04/13 00:14:38;;;;;;;7.88;3.40;;;;;;;18.28;44.10;101012.56;6285735;22;20015;-66
2022/04/13 00:17:05;;;;;;;7.43;3.88;;;;;;;18.21;43.94;101006.03;6311791;22;20102;-65
2022/04/13 00:19:32;;;;;;;7.47;3.40;;;;;;;18.20;44.41;100998.03;6310780;22;20042;-64
2022/04/13 00:21:59;;;;;;;7.53;3.22;;;;;;;18.20;44.57;101001.59;6285640;22;20037;-64
2022/04/13 00:24:26;;;;;;;7.82;3.50;;;;;;;18.22;44.75;100996.00;6339256;22;20014;-65
2022/04/13 00:26:52;;;;;;;6.95;3.13;;;;;;;18.22;44.72;101005.00;6339277;22;20336;-65
2022/04/13 00:29:19;;;;;;;9.10;3.78;;;;;;;18.24;44.36;101015.72;6311770;22;20017;-65
2022/04/13 00:31:46;;;;;;;7.78;3.40;;;;;;;18.25;44.71;101003.84;6339048;22;20120;-66
2022/04/13 00:34:17;;;;;;;7.28;3.60;;;;;;;18.25;44.57;101010.13;6339070;22;20014;-65
2022/04/13 00:36:43;;;;;;;5.38;3.15;;;;;;;18.25;44.67;101009.28;6338940;22;20007;-65
2022/04/13 00:39:10;;;;;;;6.93;3.22;;;;;;;18.25;44.51;101012.84;6311059;22;20018;-64
2022/04/13 00:41:36;;;;;;;6.15;3.42;;;;;;;18.24;44.51;101010.28;6338703;22;20038;-65
2022/04/13 00:44:06;;;;;;;7.78;3.60;;;;;;;18.23;44.45;101006.72;6338884;22;20007;-64
2022/04/13 00:46:37;;;;;;;9.65;3.97;;;;;;;18.23;44.71;101014.88;6338612;22;20022;-64
2022/04/13 00:49:06;;;;;;;12.43;3.72;;;;;;;18.18;44.72;101028.06;6338878;22;20018;-64
2022/04/13 00:51:33;;;;;;;7.03;3.92;;;;;;;18.12;44.48;101025.13;6339079;22;20014;-64
2022/04/13 00:54:00;;;;;;;7.07;3.40;;;;;;;18.03;44.62;101032.34;6338448;22;20374;-65
2022/04/13 00:56:29;;;;;;;7.53;3.63;;;;;;;17.97;44.76;101046.53;6338842;22;20011;-64
2022/04/13 00:59:09;;;;;;;8.10;3.70;;;;;;;17.92;45.02;101046.97;6310979;22;20007;-65
2022/04/13 01:01:41;;;;;;;9.10;4.07;;;;;;;17.89;44.90;101043.72;6338692;22;20041;-65
2022/04/13 01:04:12;;;;;;;10.48;3.47;;;;;;;17.82;45.28;101048.00;6338766;22;20118;-65
2022/04/13 01:06:39;;;;;;;8.48;3.92;;;;;;;17.77;45.03;101051.19;6338919;22;20060;-65
2022/04/13 01:09:11;;;;;;;7.95;3.97;;;;;;;17.69;45.03;101042.94;6339077;22;20341;-65
2022/04/13 01:11:39;;;;;;;9.00;3.50;;;;;;;17.62;45.19;101058.94;6312860;22;20023;-66
2022/04/13 01:14:05;;;;;;;8.55;3.38;;;;;;;17.57;45.14;101061.25;6340999;22;20026;-64
2022/04/13 01:16:34;;;;;;;6.57;3.60;;;;;;;17.50;45.39;101065.56;6313151;22;20438;-65
2022/04/13 01:19:04;;;;;;;6.78;3.15;;;;;;;17.44;45.79;101058.88;6341650;22;20340;-64
2022/04/13 01:21:47;;;;;;;8.57;3.88;;;;;;;17.38;45.59;101064.03;6340541;22;20471;-65
2022/04/13 01:24:15;;;;;;;7.32;3.83;;;;;;;17.37;45.78;101065.88;6340873;22;20340;-65
2022/04/13 01:26:42;;;;;;;11.18;3.60;;;;;;;17.36;45.81;101066.88;6313039;22;20467;-65
2022/04/13 01:29:09;;;;;;;7.38;3.95;;;;;;;17.35;45.68;101070.59;6311918;22;20022;-65
2022/04/13 01:31:36;;;;;;;9.07;3.72;;;;;;;17.33;45.99;101077.19;6312699;22;20441;-65
2022/04/13 01:34:07;;;;;;;9.43;4.00;;;;;;;17.31;45.95;101076.47;6313575;22;20527;-65
2022/04/13 01:36:37;;;;;;;8.25;4.03;;;;;;;17.28;45.85;101082.19;6313322;22;20349;-64
2022/04/13 01:39:05;;;;;;;7.57;4.07;;;;;;;17.24;46.03;101087.06;6342058;22;20015;-64
2022/04/13 01:41:31;;;;;;;6.18;3.97;;;;;;;17.22;45.95;101091.78;6340513;22;20015;-65
2022/04/13 01:43:58;;;;;;;7.80;4.22;;;;;;;17.24;46.18;101091.63;6340419;22;20036;-66
2022/04/13 01:46:26;;;;;;;9.90;4.28;;;;;;;17.25;46.24;101104.22;6312506;22;20015;-65
2022/04/13 01:48:53;;;;;;;6.95;4.50;;;;;;;17.26;46.16;101103.22;6313410;22;20456;-65
2022/04/13 01:51:20;;;;;;;6.03;4.20;;;;;;;17.25;46.00;101098.78;6340300;22;20496;-65
2022/04/13 01:53:48;;;;;;;7.63;3.85;;;;;;;17.21;46.03;101102.78;6340828;22;20010;-66
2022/04/13 01:56:18;;;;;;;8.40;4.25;;;;;;;17.19;46.48;101102.06;6340376;22;20433;-64
2022/04/13 01:58:45;;;;;;;6.68;4.10;;;;;;;17.17;46.19;101112.22;6340061;22;20022;-65
2022/04/13 02:01:13;;;;;;;10.75;4.00;;;;;;;17.17;46.41;101109.50;6312339;22;20023;-65
2022/04/13 02:03:40;;;;;;;8.90;4.13;;;;;;;17.18;46.48;101108.50;6339365;22;20017;-65
2022/04/13 02:06:07;;;;;;;8.63;4.05;;;;;;;17.18;46.50;101113.94;6340159;22;20011;-65
2022/04/13 02:08:34;;;;;;;8.02;3.83;;;;;;;17.19;46.63;101121.06;6340449;22;20425;-65
2022/04/13 02:11:00;;;;;;;5.32;3.55;;;;;;;17.19;46.43;101121.06;6339913;22;20011;-65
2022/04/13 02:13:27;;;;;;;5.72;3.63;;;;;;;17.19;46.56;101129.22;6312551;22;20364;-65
2022/04/13 02:15:54;;;;;;;7.13;3.80;;;;;;;17.20;46.90;101130.94;6312859;22;20060;-64
2022/04/13 02:18:21;;;;;;;8.07;4.43;;;;;;;17.20;46.79;101129.06;6339446;22;20429;-64
2022/04/13 02:20:47;;;;;;;6.82;4.10;;;;;;;17.20;46.86;101128.22;6339987;22;20011;-65
2022/04/13 02:23:14;;;;;;;8.60;4.43;;;;;;;17.19;46.86;101132.78;6312425;22;20459;-64
2022/04/13 02:25:43;;;;;;;8.68;4.40;;;;;;;17.18;47.05;101130.22;6339962;22;20090;-64
2022/04/13 02:28:10;;;;;;;9.63;4.13;;;;;;;17.18;47.15;101127.50;6312873;22;20353;-66
2022/04/13 02:30:37;;;;;;;8.70;4.20;;;;;;;17.17;47.01;101129.38;6339749;22;20072;-66
2022/04/13 02:33:03;;;;;;;7.82;4.97;;;;;;;17.18;47.13;101135.66;6345939;22;20433;-65
2022/04/13 02:35:30;;;;;;;7.38;4.30;;;;;;;17.18;47.43;101135.66;6342990;22;20097;-64
2022/04/13 02:37:57;;;;;;;8.05;4.53;;;;;;;17.19;47.50;101131.94;6313481;22;20018;-66
2022/04/13 02:40:24;;;;;;;10.38;4.78;;;;;;;17.18;47.31;101135.66;6313197;22;20020;-64
2022/04/13 02:42:51;;;;;;;7.82;4.93;;;;;;;17.16;47.35;101143.94;6340022;22;20011;-66
2022/04/13 02:45:17;;;;;;;7.75;5.18;;;;;;;17.14;47.77;101145.94;6285868;22;20015;-66
2022/04/13 02:47:44;;;;;;;11.98;5.75;;;;;;;17.12;47.87;101146.09;6312327;22;20011;-65
2022/04/13 02:50:12;;;;;;;10.55;5.40;;;;;;;17.11;47.79;101146.22;6339895;22;20025;-64
2022/04/13 02:52:39;;;;;;;9.57;5.65;;;;;;;17.09;47.76;101146.38;6311819;22;20068;-65
2022/04/13 02:55:11;;;;;;;13.25;5.97;;;;;;;17.07;48.04;101152.91;6339887;22;20341;-66
2022/04/13 02:57:38;;;;;;;7.97;5.55;;;;;;;17.07;48.01;101151.06;6312035;22;20065;-65
2022/04/13 03:00:06;;;;;;;10.73;6.15;;;;;;;17.06;48.01;101154.75;6312000;22;20022;-64
2022/04/13 03:02:33;;;;;;;10.88;6.10;;;;;;;17.07;48.24;101161.06;6339764;22;20043;-65
2022/04/13 03:05:04;;;;;;;14.35;6.38;;;;;;;17.07;47.85;101163.75;6312358;22;20318;-64
2022/04/13 03:07:32;;;;;;;12.82;6.75;;;;;;;17.08;48.46;101166.34;6312329;22;20015;-65
2022/04/13 03:09:59;;;;;;;9.35;6.10;;;;;;;17.08;48.29;101171.75;6339039;22;20017;-65
2022/04/13 03:12:26;;;;;;;12.23;6.38;;;;;;;17.10;48.10;101167.06;6340056;22;20015;-66
2022/04/13 03:14:53;;;;;;;15.82;7.32;;;;;;;17.12;48.27;101170.50;6311927;22;20023;-66
2022/04/13 03:17:21;;;;;;;10.15;6.85;;;;;;;17.11;48.54;101166.06;6311868;22;20393;-66
2022/04/13 03:19:48;;;;;;;8.98;6.50;;;;;;;17.11;48.54;101167.94;6311661;22;20018;-65
2022/04/13 03:22:15;;;;;;;11.48;6.30;;;;;;;17.10;48.55;101175.22;6339729;22;20015;-66
2022/04/13 03:24:43;;;;;;;10.27;6.20;;;;;;;17.10;48.43;101177.94;6339436;22;20018;-66
2022/04/13 03:27:09;;;;;;;13.88;6.15;;;;;;;17.09;48.78;101170.78;6338948;22;20090;-66
2022/04/13 03:29:36;;;;;;;9.35;6.05;;;;;;;17.06;48.82;101176.47;6339171;22;20015;-66
2022/04/13 03:32:03;;;;;;;10.82;5.93;;;;;;;17.04;48.70;101173.03;6312257;22;20019;-65
2022/04/13 03:34:30;;;;;;;10.05;6.38;;;;;;;17.00;48.81;101166.19;6338696;22;20015;-66
2022/04/13 03:37:00;;;;;;;10.93;5.75;;;;;;;16.97;48.71;101171.03;6339245;22;20021;-66
2022/04/13 03:39:28;;;;;;;10.98;6.85;;;;;;;16.92;48.99;101173.31;6339476;22;20114;-65
2022/04/13 03:41:55;;;;;;;10.13;6.70;;;;;;;16.87;48.88;101171.03;6339216;22;20344;-65
2022/04/13 03:44:22;;;;;;;11.68;6.50;;;;;;;16.85;48.71;101175.75;6338624;22;20010;-65
2022/04/13 03:46:53;;;;;;;11.85;5.55;;;;;;;16.84;49.06;101171.31;6312244;22;20064;-64
2022/04/13 03:49:20;;;;;;;12.90;6.80;;;;;;;16.82;48.45;101178.75;6311865;22;20090;-64
2022/04/13 03:51:47;;;;;;;12.75;6.93;;;;;;;16.80;48.94;101175.31;6311826;22;20348;-65
2022/04/13 03:54:14;;;;;;;18.80;6.72;;;;;;;16.76;48.75;101177.47;6339650;22;20072;-65
2022/04/13 03:56:40;;;;;;;13.85;6.80;;;;;;;16.73;48.80;101179.59;6339327;22;20508;-65
2022/04/13 03:59:09;;;;;;;19.85;7.10;;;;;;;16.71;48.94;101181.59;6311074;22;20330;-65
2022/04/13 04:01:36;;;;;;;16.23;6.97;;;;;;;16.70;49.02;101179.88;6339561;22;20329;-65
2022/04/13 04:04:03;;;;;;;11.68;6.50;;;;;;;16.68;49.23;101181.88;6339560;22;20068;-65
2022/04/13 04:06:30;;;;;;;17.35;7.28;;;;;;;16.66;49.23;101182.00;6339449;22;20068;-65
2022/04/13 04:08:56;;;;;;;14.65;6.55;;;;;;;16.65;49.11;101183.00;6338379;22;20390;-64
2022/04/13 04:11:23;;;;;;;17.63;6.93;;;;;;;16.64;49.08;101186.69;6311828;22;20015;-66
2022/04/13 04:13:50;;;;;;;17.65;7.55;;;;;;;16.65;49.15;101187.53;6339193;22;20041;-65
2022/04/13 04:16:17;;;;;;;13.18;6.68;;;;;;;16.64;49.20;101189.41;6338804;22;20376;-65
2022/04/13 04:18:45;;;;;;;12.73;6.93;;;;;;;16.61;49.33;101189.69;6311867;22;20060;-65
2022/04/13 04:21:12;;;;;;;12.95;7.07;;;;;;;16.59;49.14;101196.22;6339040;22;20096;-65
2022/04/13 04:23:38;;;;;;;14.57;7.50;;;;;;;16.54;49.25;101199.38;6311840;22;20015;-65
2022/04/13 04:26:05;;;;;;;11.45;6.93;;;;;;;16.50;49.46;101197.94;6311320;22;20437;-64
2022/04/13 04:28:32;;;;;;;13.35;7.07;;;;;;;16.45;49.44;101201.06;6339011;22;20341;-64
2022/04/13 04:30:59;;;;;;;12.00;7.13;;;;;;;16.42;49.26;101206.75;6311290;22;20337;-64
2022/04/13 04:33:26;;;;;;;18.83;7.18;;;;;;;16.39;49.31;101208.88;6310259;22;20507;-64
2022/04/13 04:35:53;;;;;;;8.25;6.25;;;;;;;16.34;49.34;101213.81;6338907;22;20448;-65
2022/04/13 04:38:21;;;;;;;8.10;5.65;;;;;;;16.30;49.41;101217.81;6339203;22;20415;-65
2022/04/13 04:40:48;;;;;;;15.93;7.13;;;;;;;16.25;49.54;101229.06;6338786;22;20082;-64
2022/04/13 04:43:15;;;;;;;11.10;6.22;;;;;;;16.19;49.30;101229.59;6338258;22;20011;-64
2022/04/13 04:45:41;;;;;;;8.32;5.47;;;;;;;16.13;49.63;101232.84;6311065;22;20391;-64
2022/04/13 04:48:08;;;;;;;9.25;6.63;;;;;;;16.06;49.41;101240.66;6339285;22;20314;-65
2022/04/13 04:50:35;;;;;;;10.93;6.75;;;;;;;15.98;49.57;101242.31;6338524;22;20337;-64
2022/04/13 04:53:02;;;;;;;11.13;6.97;;;;;;;15.91;49.51;101246.56;6338823;22;20019;-65
2022/04/13 04:55:29;;;;;;;10.73;6.28;;;;;;;15.82;49.40;101242.81;6339652;22;20011;-64
2022/04/13 04:57:56;;;;;;;10.68;7.07;;;;;;;15.74;49.77;101250.75;6311525;22;20385;-65
2022/04/13 05:00:23;;;;;;;10.93;7.32;;;;;;;15.67;49.80;101254.97;6338672;22;20021;-64
2022/04/13 05:02:51;;;;;;;10.10;6.78;;;;;;;15.62;49.85;101251.78;6338939;22;20095;-65
2022/04/13 05:05:20;;;;;;;9.32;6.93;;;;;;;15.56;49.92;101258.53;6339012;22;20041;-65
2022/04/13 05:07:48;;;;;;;12.40;7.03;;;;;;;15.52;49.92;101265.19;6311319;22;20094;-65
2022/04/13 05:10:15;;;;;;;10.20;6.88;;;;;;;15.47;50.22;101264.72;6311624;22;20397;-65
2022/04/13 05:12:47;;;;;;;12.13;7.47;;;;;;;15.41;50.19;101266.09;6338915;22;20068;-65
2022/04/13 05:15:14;;;;;;;10.93;7.60;;;;;;;15.32;50.16;101271.44;6310007;22;20109;-64
2022/04/13 05:17:42;;;;;;;13.13;7.10;;;;;;;15.26;50.46;101272.81;6338766;22;20011;-66
2022/04/13 05:20:09;;;;;;;15.07;8.07;;;;;;;15.23;50.47;101279.34;6338904;22;20329;-66
2022/04/13 05:22:37;;;;;;;14.93;7.30;;;;;;;15.22;50.70;101288.44;6338955;22;20064;-66
2022/04/13 05:25:09;;;;;;;13.55;7.70;;;;;;;15.23;50.51;101289.31;6338257;22;20019;-65
2022/04/13 05:27:36;;;;;;;16.63;8.35;;;;;;;15.23;50.43;101294.72;6311484;22;20030;-64
2022/04/13 05:30:04;;;;;;;11.30;7.70;;;;;;;15.20;50.67;101290.41;6338457;22;20014;-65
2022/04/13 05:32:32;;;;;;;12.18;8.13;;;;;;;15.18;50.62;101296.94;6337617;22;20038;-64
2022/04/13 05:35:03;;;;;;;12.88;8.45;;;;;;;15.16;50.94;101299.78;6338790;22;20015;-66
2022/04/13 05:37:29;;;;;;;13.77;9.40;;;;;;;15.16;50.88;101297.06;6337564;22;20060;-66
2022/04/13 05:39:56;;;;;;;19.10;9.70;;;;;;;15.11;51.01;101304.72;6311427;22;20015;-64
2022/04/13 05:42:26;;;;;;;20.60;8.90;;;;;;;15.06;51.23;101298.81;6338697;22;20023;-65
2022/04/13 05:44:55;;;;;;;16.75;8.45;;;;;;;15.04;51.10;101310.75;6338449;22;20463;-62
2022/04/13 05:47:22;;;;;;;12.30;8.35;;;;;;;15.06;51.45;101311.50;6338794;22;20467;-66
2022/04/13 05:49:49;;;;;;;15.88;8.82;;;;;;;15.10;51.52;101313.81;6337784;22;20015;-65
2022/04/13 05:52:17;;;;;;;16.25;9.68;;;;;;;15.13;51.34;101308.16;6338171;22;20440;-64
2022/04/13 05:54:44;;;;;;;18.45;9.32;;;;;;;15.13;51.78;101320.81;6338734;22;20015;-65
2022/04/13 05:57:12;;;;;;;14.52;10.35;;;;;;;15.12;51.73;101319.97;6339514;22;20317;-68
2022/04/13 05:59:38;;;;;;;16.98;10.65;;;;;;;15.16;51.80;101324.13;6339863;22;20400;-67
2022/04/13 06:02:05;;;;;;;19.45;11.13;;;;;;;15.18;51.99;101327.56;6339898;22;20021;-68
2022/04/13 06:04:34;;;;;;;19.40;11.48;;;;;;;15.19;52.26;101317.59;6339863;22;20011;-67
2022/04/13 06:07:01;;;;;;;20.92;11.20;;;;;;;15.25;52.36;101320.66;6340070;22;20402;-67
2022/04/13 06:09:28;;;;;;;20.50;11.73;;;;;;;15.32;52.37;101328.28;6339599;22;20383;-67
2022/04/13 06:11:54;;;;;;;18.98;11.70;;;;;;;15.38;52.60;101335.88;6312417;22;20011;-68
2022/04/13 06:14:21;;;;;;;17.70;11.70;;;;;;;15.42;52.81;101338.19;6339900;22;20322;-66
2022/04/13 06:16:47;;;;;;;15.48;11.05;;;;;;;15.50;52.84;101342.97;6312395;22;20018;-67
2022/04/13 06:19:14;;;;;;;23.73;12.07;;;;;;;15.61;52.84;101353.81;6340202;22;20400;-67
2022/04/13 06:21:41;;;;;;;17.30;11.07;;;;;;;15.72;52.94;101353.78;6339886;22;20019;-67
2022/04/13 06:24:07;;;;;;;20.13;11.77;;;;;;;15.85;53.06;101350.88;6313189;22;20038;-68
2022/04/13 06:26:34;;;;;;;23.13;11.68;;;;;;;15.98;52.94;101354.25;6312271;22;20033;-67
2022/04/13 06:29:04;;;;;;;16.77;11.65;;;;;;;16.14;53.36;101354.66;6312254;22;20019;-67
2022/04/13 06:31:31;;;;;;;18.45;12.02;;;;;;;16.30;53.27;101356.88;6340227;22;20351;-67
2022/04/13 06:33:59;;;;;;;24.02;11.82;;;;;;;16.46;53.58;101351.03;6340428;22;20034;-68
2022/04/13 06:36:25;;;;;;;20.25;10.23;;;;;;;16.61;53.47;101354.22;6340318;22;20336;-67
2022/04/13 06:38:52;;;;;;;17.40;11.45;;;;;;;16.74;53.35;101361.19;6339993;22;20034;-68
2022/04/13 06:41:21;;;;;;;17.50;11.63;;;;;;;16.87;53.47;101362.78;6339965;22;20014;-68
2022/04/13 06:43:47;;;;;;;15.30;11.60;;;;;;;17.02;53.15;101351.41;6339877;22;20437;-67
2022/04/13 06:46:14;;;;;;;19.27;12.50;;;;;;;17.17;53.08;101368.19;6339954;22;20452;-69
2022/04/13 06:48:40;;;;;;;14.27;12.73;;;;;;;17.34;53.22;101363.97;6339982;22;20015;-68
2022/04/13 06:51:07;;;;;;;15.13;11.65;;;;;;;17.51;53.43;101370.56;6339368;22;20015;-67
2022/04/13 06:53:33;;;;;;;20.42;12.00;;;;;;;17.66;53.30;101369.13;6340151;22;20337;-68
2022/04/13 06:56:00;;;;;;;16.30;12.32;;;;;;;17.82;53.30;101371.31;6286435;22;20145;-67
2022/04/13 06:58:27;;;;;;;17.88;12.40;;;;;;;17.94;53.06;101370.19;6340036;22;20069;-67
2022/04/13 07:00:57;;;;;;;20.30;13.07;;;;;;;18.05;52.93;101370.91;6339473;22;20399;-67
2022/04/13 07:03:24;;;;;;;16.67;12.45;;;;;;;18.19;53.11;101379.63;6339790;22;20015;-68
2022/04/13 07:05:52;;;;;;;18.13;12.80;;;;;;;18.33;53.02;101387.31;6312655;22;20007;-67
2022/04/13 07:08:19;;;;;;;19.38;14.02;;;;;;;18.46;52.89;101390.59;6340042;22;20502;-67
2022/04/13 07:10:47;;;;;;;19.48;12.30;;;;;;;18.59;52.83;101395.72;6312235;22;20397;-67
2022/04/13 07:13:14;;;;;;;17.85;13.32;;;;;;;18.72;52.94;101405.31;6312159;22;20014;-67
2022/04/13 07:15:41;;;;;;;17.92;13.18;;;;;;;18.85;52.74;101413.16;6286511;22;20464;-67
2022/04/13 07:18:09;;;;;;;23.30;13.80;;;;;;;18.95;53.00;101408.53;6339988;22;20041;-67
2022/04/13 07:20:35;;;;;;;20.67;13.43;;;;;;;19.03;52.75;101416.81;6311654;22;20025;-67
2022/04/13 07:23:02;;;;;;;18.95;12.40;;;;;;;19.15;52.47;101413.88;6339881;22;20014;-67
2022/04/13 07:25:29;;;;;;;19.17;12.70;;;;;;;19.23;52.68;101409.41;6339237;22;20035;-66
2022/04/13 07:27:56;;;;;;;19.33;12.35;;;;;;;19.33;52.38;101410.22;6339803;22;20050;-65
2022/04/13 07:30:22;;;;;;;15.52;11.60;;;;;;;19.41;52.31;101420.38;6339917;22;20021;-65
2022/04/13 07:32:52;;;;;;;24.15;12.65;;;;;;;19.51;52.14;101418.44;6340422;22;20393;-65
2022/04/13 07:35:19;;;;;;;14.80;11.27;;;;;;;19.63;51.96;101425.41;6339892;22;20371;-65
2022/04/13 07:37:46;;;;;;;17.95;12.02;;;;;;;19.75;51.98;101433.38;6339454;22;20019;-65
2022/04/13 07:40:14;;;;;;;19.90;12.77;;;;;;;19.83;51.87;101452.53;6339345;22;20496;-65
2022/04/13 07:42:41;;;;;;;25.30;13.23;;;;;;;19.88;51.42;101455.66;6339756;22;20094;-65
2022/04/13 07:45:08;;;;;;;23.60;14.80;;;;;;;19.93;51.41;101458.78;6339788;22;20088;-66
2022/04/13 07:47:35;;;;;;;21.42;14.30;;;;;;;19.94;50.99;101453.16;6339673;22;20057;-64
2022/04/13 07:50:02;;;;;;;25.35;14.82;;;;;;;19.94;51.16;101450.44;6339195;22;20347;-64
2022/04/13 07:52:33;;;;;;;20.45;13.68;;;;;;;19.90;51.17;101454.47;6339660;22;20015;-64
2022/04/13 07:55:00;;;;;;;22.45;13.82;;;;;;;19.87;50.67;101454.78;6339357;22;20086;-65
2022/04/13 07:57:27;;;;;;;20.10;13.75;;;;;;;19.85;50.78;101450.50;6339334;22;20041;-67
2022/04/13 07:59:53;;;;;;;22.48;16.08;;;;;;;19.83;50.98;101449.81;6339148;22;20015;-67
2022/04/13 08:02:20;;;;;;;18.55;14.80;;;;;;;19.84;50.67;101446.94;6339666;22;20394;-67
2022/04/13 08:04:47;;;;;;;22.65;14.77;;;;;;;19.84;50.92;101448.78;6285855;22;20015;-67
2022/04/13 08:07:14;;;;;;;25.30;15.55;;;;;;;19.85;50.90;101451.38;6339544;22;20025;-66
2022/04/13 08:09:42;;;;;;;26.77;15.98;;;;;;;19.86;50.68;101457.69;6339103;22;20340;-67
2022/04/13 08:12:09;;;;;;;22.42;16.13;;;;;;;19.88;50.67;101461.09;6339162;22;20452;-68
2022/04/13 08:14:35;;;;;;;22.45;16.30;;;;;;;19.88;50.67;101470.13;6311512;22;20037;-65
2022/04/13 08:17:03;;;;;;;22.98;16.92;;;;;;;19.90;50.80;101470.84;6339100;22;20029;-65
2022/04/13 08:19:31;;;;;;;24.30;16.13;;;;;;;19.93;50.90;101473.25;6338050;22;20471;-67
2022/04/13 08:21:58;;;;;;;20.63;15.57;;;;;;;19.94;50.95;101471.38;6338518;22;20014;-67
2022/04/13 08:24:24;;;;;;;21.67;15.00;;;;;;;19.95;50.81;101482.13;6311749;22;20041;-67
2022/04/13 08:26:51;;;;;;;25.42;16.85;;;;;;;19.99;50.76;101479.97;6339482;22;20014;-68
2022/04/13 08:29:18;;;;;;;23.63;17.40;;;;;;;20.02;50.42;101492.44;6312065;22;20093;-67
2022/04/13 08:31:44;;;;;;;26.45;16.50;;;;;;;20.00;50.15;101489.84;6339075;22;20053;-67
2022/04/13 08:34:11;;;;;;;23.08;16.67;;;;;;;20.01;50.33;101486.13;6311769;22;20398;-66
2022/04/13 08:36:37;;;;;;;20.30;16.00;;;;;;;20.03;50.65;101489.53;6338875;22;20014;-67
2022/04/13 08:39:06;;;;;;;24.05;15.65;;;;;;;20.06;50.29;101491.97;6339051;22;20318;-66
2022/04/13 08:41:49;;;;;;;24.42;16.17;;;;;;;20.13;50.52;101493.09;6338725;22;20015;-67
2022/04/13 08:44:31;;;;;;;20.85;16.52;;;;;;;20.23;50.36;101493.88;6285977;22;20021;-67
2022/04/13 08:47:01;;;;;;;23.63;16.48;;;;;;;20.33;50.23;101495.66;6339100;22;20510;-67
2022/04/13 08:49:30;;;;;;;20.73;14.95;;;;;;;20.43;50.31;101494.59;6311943;22;20007;-67
2022/04/13 08:52:07;;;;;;;21.50;14.75;;;;;;;20.57;50.36;101494.03;6338204;22;20041;-67
2022/04/13 08:54:51;;;;;;;21.88;14.95;;;;;;;20.68;50.65;101495.66;6312885;22;20348;-66
2022/04/13 08:57:21;;;;;;;21.80;14.88;;;;;;;20.79;50.31;101489.94;6311174;22;20022;-67
2022/04/13 09:00:08;;;;;;;22.48;15.77;;;;;;;20.90;50.56;101486.97;6338696;22;20429;-67
2022/04/13 09:03:10;;;;;;;19.75;14.68;;;;;;;21.03;50.35;101496.59;6339076;22;20098;-66
2022/04/13 09:05:49;;;;;;;20.40;14.20;;;;;;;21.16;50.34;101502.47;6338873;22;20011;-67
2022/04/13 09:08:35;;;;;;;19.05;14.32;;;;;;;21.24;50.24;101508.03;6339564;22;20015;-67
2022/04/13 09:11:04;;;;;;;21.38;15.10;;;;;;;21.34;49.85;101505.16;6311046;22;20019;-67
2022/04/13 09:13:35;;;;;;;17.67;11.57;;;;;;;21.36;49.48;101506.72;6338583;22;20015;-67
2022/04/13 09:16:03;;;;;;;19.50;12.73;;;;;;;21.40;49.13;101505.38;6311264;22;20018;-67
2022/04/13 09:18:31;;;;;;;16.25;12.48;;;;;;;21.49;49.24;101498.06;6338928;22;20015;-67
2022/04/13 09:20:59;;;;;;;15.70;12.45;;;;;;;21.61;48.96;101512.31;6311328;22;20470;-68
2022/04/13 09:23:28;;;;;;;18.40;11.93;;;;;;;21.69;48.88;101515.94;6338846;22;20401;-67
2022/04/13 09:25:56;;;;;;;26.67;10.88;;;;;;;21.75;48.97;101498.88;6310671;22;20449;-68
2022/04/13 09:28:23;;;;;;;20.77;10.10;;;;;;;21.79;48.39;101507.59;6338772;22;20049;-68
2022/04/13 09:30:51;;;;;;;15.93;10.38;;;;;;;21.80;48.51;101512.91;6311782;22;20018;-67
2022/04/13 09:33:18;;;;;;;16.48;10.90;;;;;;;21.83;48.36;101511.72;6312907;22;20124;-68
2022/04/13 09:35:45;;;;;;;11.65;9.18;;;;;;;21.84;48.35;101522.50;6313437;22;20367;-67
2022/04/13 09:38:12;;;;;;;16.17;9.75;;;;;;;21.85;48.43;101524.22;6313324;22;20098;-68
2022/04/13 09:40:42;;;;;;;15.43;9.70;;;;;;;21.90;48.17;101520.97;6313635;22;20407;-68
2022/04/13 09:43:17;;;;;;;13.52;8.95;;;;;;;21.97;48.12;101527.50;6312801;22;20019;-67
2022/04/13 09:45:49;;;;;;;17.40;9.73;;;;;;;22.02;47.93;101525.09;6287713;22;20344;-68
2022/04/13 09:48:19;;;;;;;11.70;8.32;;;;;;;22.08;47.91;101521.72;6340970;22;20019;-68
2022/04/13 09:50:48;;;;;;;14.07;8.40;;;;;;;22.13;47.38;101534.91;6312817;22;20038;-67
2022/04/13 09:53:17;;;;;;;14.45;8.98;;;;;;;22.18;47.68;101541.59;6340829;22;20080;-67
2022/04/13 09:55:49;;;;;;;13.48;9.18;;;;;;;22.24;47.76;101539.22;6342110;22;20097;-67
2022/04/13 09:58:25;;;;;;;12.85;7.80;;;;;;;22.26;47.65;101532.53;6314352;22;20019;-66
2022/04/13 10:01:00;;;;;;;8.43;5.95;;;;;;;22.24;47.19;101544.69;6340346;22;20077;-68
2022/04/13 10:03:28;;;;;;;13.57;8.32;;;;;;;22.24;47.34;101537.31;6340705;22;20382;-67
2022/04/13 10:05:56;;;;;;;13.48;9.23;;;;;;;22.26;47.37;101539.91;6312992;22;20451;-68
2022/04/13 10:08:25;;;;;;;13.52;9.15;;;;;;;22.25;46.96;101546.41;6312901;22;20083;-67
2022/04/13 10:10:56;;;;;;;12.73;9.85;;;;;;;22.26;47.33;101543.50;6340264;22;20037;-67
2022/04/13 10:13:31;;;;;;;14.43;9.13;;;;;;;22.27;47.38;101549.81;6340882;22;20011;-67
2022/04/13 10:16:00;;;;;;;14.63;10.70;;;;;;;22.25;47.21;101546.41;6287540;22;20011;-67
2022/04/13 10:18:28;;;;;;;15.30;10.27;;;;;;;22.20;47.34;101547.75;6313004;22;20090;-68
2022/04/13 10:20:54;;;;;;;13.05;10.25;;;;;;;22.16;47.41;101551.84;6312459;22;20015;-67
2022/04/13 10:23:21;;;;;;;15.60;10.98;;;;;;;22.14;47.34;101555.78;6340098;22;20441;-67
2022/04/13 10:25:48;;;;;;;21.17;11.57;;;;;;;22.10;47.33;101555.25;6340041;22;20019;-68
2022/04/13 10:28:21;;;;;;;16.70;11.57;;;;;;;22.08;47.66;101556.44;6312822;22;20466;-67
2022/04/13 10:30:49;;;;;;;15.35;10.68;;;;;;;22.06;47.63;101561.22;6339907;22;20015;-68
2022/04/13 10:33:16;;;;;;;18.27;10.32;;;;;;;22.01;47.60;101558.97;6287095;22;20992;-67
2022/04/13 10:35:45;;;;;;;14.98;11.18;;;;;;;21.98;47.30;101555.69;6340001;22;20433;-68
2022/04/13 10:38:12;;;;;;;17.38;11.93;;;;;;;21.94;47.41;101555.16;6339981;22;20391;-67
2022/04/13 10:40:41;;;;;;;16.55;11.00;;;;;;;21.92;47.33;101557.22;6312510;22;20011;-68
2022/04/13 10:43:11;;;;;;;16.90;11.43;;;;;;;21.92;47.32;101562.69;6312104;22;20101;-68
2022/04/13 10:45:46;;;;;;;15.55;11.13;;;;;;;21.93;47.64;101558.94;6340056;22;20345;-68
2022/04/13 10:48:17;;;;;;;;;;;;;;;21.92;47.37;101554.47;6312779;22;20347;-67
2022/04/13 10:50:54;;;;;;;17.40;12.13;;;;;;;21.97;47.77;101564.94;6312226;22;20333;-67
2022/04/13 10:53:27;;;;;;;15.18;10.80;;;;;;;21.95;47.29;101575.19;6339717;22;20053;-67
2022/04/13 10:56:03;;;;;;;18.30;11.93;;;;;;;21.93;47.68;101563.53;6339925;22;20097;-67
2022/04/13 10:58:58;;;;;;;15.65;11.80;;;;;;;21.92;47.62;101562.69;6347698;22;20018;-67
2022/04/13 11:01:30;;;;;;;17.42;13.05;;;;;;;21.93;47.74;101567.13;6312387;22;20015;-67
2022/04/13 11:03:58;;;;;;;14.38;11.23;;;;;;;21.95;47.73;101578.75;6340252;22;20014;-67
2022/04/13 11:06:25;;;;;;;17.05;12.13;;;;;;;21.96;47.77;101575.00;6312773;22;20437;-67
2022/04/13 11:09:00;;;;;;;17.08;12.88;;;;;;;21.97;47.84;101578.59;6286680;22;20441;-67
2022/04/13 11:11:29;;;;;;;16.50;13.40;;;;;;;21.97;47.99;101573.13;6339693;22;20039;-68
2022/04/13 11:13:56;;;;;;;19.33;14.30;;;;;;;21.98;47.65;101575.69;6312031;22;20344;-68
2022/04/13 11:16:27;;;;;;;16.83;14.63;;;;;;;21.99;47.98;101588.34;6339464;22;20025;-68
2022/04/13 11:19:00;;;;;;;17.13;13.70;;;;;;;22.02;48.25;101593.50;6339767;22;20015;-67
2022/04/13 11:21:29;;;;;;;17.92;14.82;;;;;;;22.04;48.19;101596.09;6339904;22;20068;-67
2022/04/13 11:23:55;;;;;;;20.40;14.70;;;;;;;22.01;47.87;101594.50;6312642;22;20019;-67